Terminal Aerodrome Forecast
Issued by NWS

Home | Current Version | Previous Version | Text Only | Print | Product List | Glossary On
Versions: 1 2 3 4 5 6 7 8 9 10 11 12 13 14 15 16 17
826
FTPA31 PHFO 290531
TAFHTO
TAF
PHTO 290531Z 2906/3006 12009KT P6SM FEW045 BKN070
     FM290800 21006KT P6SM VCSH SCT025 BKN045
     FM291200 24006KT 6SM -SHRA BKN025 OVC045
     FM292100 12009G15KT P6SM VCSH SCT025 BKN045=

USA.gov is the U.S. government's official web portal to all federal, state and local government web resources and services.